CP1270 SLET-SLCR
Flight info
| Callsign | CP1270 |
|---|---|
| Flight time | N/A |
| Altitude | 5000 |
| Route | SLET |
| Aircraft | C207/L-SDFGR/C |
Departure
| Time | 2026-04-18 17:56 |
|---|---|
| Airport | El Trompillo Airport (SLET) |
Arrival
| Time | N/A |
|---|---|
| Airport | Comarapa Airport (SLCR) |
| Time | Latitude | Longitude | Altitude | Speed | Heading |
|---|---|---|---|---|---|
| 2026-04-18 17:40 | -17.80188 | -63.17620 | 1379 ft | 0 kts | 79° |
| 2026-04-18 17:51 | -17.80183 | -63.17619 | 1376 ft | 4 kts | 311° |
| 2026-04-18 17:51 | -17.80247 | -63.17657 | 1377 ft | 18 kts | 204° |
| 2026-04-18 17:52 | -17.80369 | -63.17696 | 1380 ft | 17 kts | 195° |
| 2026-04-18 17:52 | -17.80470 | -63.17656 | 1378 ft | 16 kts | 146° |
| 2026-04-18 17:52 | -17.80579 | -63.17572 | 1378 ft | 26 kts | 146° |
| 2026-04-18 17:52 | -17.80767 | -63.17435 | 1373 ft | 39 kts | 150° |
| 2026-04-18 17:53 | -17.81002 | -63.17256 | 1370 ft | 41 kts | 145° |
| 2026-04-18 17:53 | -17.81220 | -63.17091 | 1369 ft | 36 kts | 144° |
| 2026-04-18 17:53 | -17.81352 | -63.16994 | 1368 ft | 33 kts | 151° |
| 2026-04-18 17:53 | -17.81587 | -63.16813 | 1366 ft | 32 kts | 151° |
| 2026-04-18 17:54 | -17.81766 | -63.16723 | 1365 ft | 23 kts | 172° |
| 2026-04-18 17:54 | -17.81784 | -63.16717 | 1365 ft | 0 kts | 140° |
| 2026-04-18 17:54 | -17.81783 | -63.16707 | 1364 ft | 3 kts | 54° |
| 2026-04-18 17:54 | -17.81782 | -63.16706 | 1364 ft | 0 kts | 48° |
| 2026-04-18 17:55 | -17.81746 | -63.16695 | 1364 ft | 12 kts | 332° |
| 2026-04-18 17:55 | -17.81649 | -63.16769 | 1366 ft | 44 kts | 324° |
| 2026-04-18 17:55 | -17.81285 | -63.17053 | 1386 ft | 82 kts | 322° |
| 2026-04-18 17:55 | -17.80684 | -63.17607 | 1674 ft | 92 kts | 321° |
| 2026-04-18 17:56 | -17.80295 | -63.17941 | 1618 ft | 110 kts | 322° |
| 2026-04-18 17:56 | -17.79642 | -63.18433 | 1687 ft | 111 kts | 341° |
| 2026-04-18 17:56 | -17.78781 | -63.17252 | 2402 ft | 125 kts | 66° |
| 2026-04-18 17:57 | -17.78605 | -63.16339 | 2389 ft | 154 kts | 74° |
| 2026-04-18 17:57 | -17.78203 | -63.14059 | 2377 ft | 152 kts | 71° |
| 2026-04-18 17:58 | -17.77809 | -63.11960 | 2874 ft | 142 kts | 73° |
| 2026-04-18 17:58 | -17.77372 | -63.09947 | 3389 ft | 140 kts | 59° |
| 2026-04-18 17:59 | -17.75989 | -63.08686 | 3951 ft | 135 kts | 37° |
| 2026-04-18 17:59 | -17.75338 | -63.07967 | 4224 ft | 136 kts | 45° |
| 2026-04-18 17:59 | -17.74138 | -63.06428 | 4691 ft | 139 kts | 50° |
| 2026-04-18 18:00 | -17.73594 | -63.05555 | 4800 ft | 147 kts | 54° |
| 2026-04-18 18:00 | -17.72393 | -63.03691 | 4901 ft | 160 kts | 49° |
| 2026-04-18 18:01 | -17.71098 | -63.01714 | 4920 ft | 166 kts | 51° |
| 2026-04-18 18:01 | -17.69774 | -62.99704 | 4904 ft | 168 kts | 50° |
| 2026-04-18 18:02 | -17.68446 | -62.97679 | 4909 ft | 172 kts | 50° |
| 2026-04-18 18:02 | -17.67091 | -62.95603 | 4909 ft | 173 kts | 51° |
| 2026-04-18 18:02 | -17.66413 | -62.94561 | 4893 ft | 173 kts | 50° |
| 2026-04-18 18:03 | -17.65053 | -62.92495 | 4878 ft | 171 kts | 52° |
| 2026-04-18 18:03 | -17.64394 | -62.91469 | 4873 ft | 168 kts | 50° |
| 2026-04-18 18:04 | -17.63061 | -62.89471 | 4905 ft | 169 kts | 50° |
| 2026-04-18 18:04 | -17.62398 | -62.88443 | 4899 ft | 171 kts | 52° |
| 2026-04-18 18:04 | -17.61044 | -62.86371 | 4920 ft | 173 kts | 52° |
| 2026-04-18 18:05 | -17.59711 | -62.84338 | 4870 ft | 168 kts | 52° |
| 2026-04-18 18:05 | -17.59046 | -62.83331 | 4864 ft | 167 kts | 52° |
| 2026-04-18 18:05 | -17.58388 | -62.82321 | 4889 ft | 168 kts | 51° |
| 2026-04-18 18:06 | -17.57028 | -62.80266 | 4923 ft | 174 kts | 52° |
| 2026-04-18 18:06 | -17.56352 | -62.79216 | 4925 ft | 174 kts | 52° |
| 2026-04-18 18:06 | -17.55651 | -62.78162 | 4926 ft | 175 kts | 51° |
| 2026-04-18 18:07 | -17.54964 | -62.77110 | 4924 ft | 174 kts | 52° |
| 2026-04-18 18:07 | -17.54285 | -62.76076 | 4887 ft | 170 kts | 50° |
| 2026-04-18 18:07 | -17.52956 | -62.74059 | 4888 ft | 167 kts | 52° |
| 2026-04-18 18:08 | -17.52297 | -62.73054 | 4869 ft | 166 kts | 52° |
| 2026-04-18 18:08 | -17.51636 | -62.72048 | 4898 ft | 167 kts | 52° |
| 2026-04-18 18:08 | -17.50983 | -62.71051 | 4894 ft | 167 kts | 52° |
| 2026-04-18 18:08 | -17.50321 | -62.70051 | 4884 ft | 166 kts | 51° |
| 2026-04-18 18:09 | -17.49671 | -62.69054 | 4889 ft | 166 kts | 52° |
| 2026-04-18 18:09 | -17.49008 | -62.68049 | 4918 ft | 169 kts | 51° |
| 2026-04-18 18:09 | -17.48337 | -62.67030 | 4903 ft | 170 kts | 52° |
| 2026-04-18 18:09 | -17.47677 | -62.66026 | 4898 ft | 168 kts | 52° |
| 2026-04-18 18:10 | -17.47006 | -62.65014 | 4891 ft | 168 kts | 51° |
| 2026-04-18 18:10 | -17.46343 | -62.64004 | 4870 ft | 167 kts | 51° |
| 2026-04-18 18:10 | -17.45687 | -62.63002 | 4877 ft | 167 kts | 52° |
| 2026-04-18 18:10 | -17.45033 | -62.62006 | 4870 ft | 168 kts | 52° |
| 2026-04-18 18:11 | -17.44370 | -62.60996 | 4868 ft | 167 kts | 52° |
| 2026-04-18 18:11 | -17.43705 | -62.59994 | 4855 ft | 168 kts | 51° |
| 2026-04-18 18:11 | -17.43042 | -62.58992 | 4843 ft | 166 kts | 52° |
| 2026-04-18 18:11 | -17.42390 | -62.57990 | 4884 ft | 167 kts | 52° |
| 2026-04-18 18:12 | -17.41724 | -62.56981 | 4900 ft | 168 kts | 52° |
| 2026-04-18 18:12 | -17.41065 | -62.55986 | 4908 ft | 169 kts | 52° |
| 2026-04-18 18:12 | -17.40403 | -62.54973 | 4880 ft | 167 kts | 52° |
| 2026-04-18 18:12 | -17.39737 | -62.53968 | 4873 ft | 166 kts | 52° |
| 2026-04-18 18:13 | -17.39097 | -62.52994 | 4877 ft | 164 kts | 51° |
| 2026-04-18 18:13 | -17.39078 | -62.52967 | 4878 ft | 164 kts | 51° |
| 2026-04-18 18:13 | -17.38433 | -62.51993 | 4880 ft | 166 kts | 53° |
| 2026-04-18 18:13 | -17.37776 | -62.50987 | 4870 ft | 167 kts | 52° |
| 2026-04-18 18:14 | -17.37116 | -62.49993 | 4861 ft | 166 kts | 51° |
| 2026-04-18 18:14 | -17.36455 | -62.48993 | 4880 ft | 168 kts | 52° |
| 2026-04-18 18:14 | -17.35787 | -62.47984 | 4875 ft | 170 kts | 52° |
| 2026-04-18 18:14 | -17.35132 | -62.46980 | 4854 ft | 168 kts | 52° |
| 2026-04-18 18:15 | -17.34466 | -62.45969 | 4892 ft | 169 kts | 52° |
| 2026-04-18 18:15 | -17.33790 | -62.44952 | 4921 ft | 170 kts | 51° |
| 2026-04-18 18:15 | -17.33123 | -62.43938 | 4890 ft | 168 kts | 52° |
| 2026-04-18 18:15 | -17.32459 | -62.42931 | 4883 ft | 167 kts | 52° |
| 2026-04-18 18:16 | -17.31793 | -62.41923 | 4902 ft | 169 kts | 52° |
| 2026-04-18 18:16 | -17.31134 | -62.40926 | 4884 ft | 167 kts | 52° |
| 2026-04-18 18:16 | -17.30469 | -62.39926 | 4871 ft | 167 kts | 52° |
| 2026-04-18 18:16 | -17.29811 | -62.38922 | 4884 ft | 167 kts | 52° |
| 2026-04-18 18:17 | -17.29148 | -62.37918 | 4890 ft | 168 kts | 52° |
| 2026-04-18 18:17 | -17.28482 | -62.36905 | 4868 ft | 168 kts | 52° |
| 2026-04-18 18:17 | -17.27815 | -62.35907 | 4881 ft | 171 kts | 53° |
| 2026-04-18 18:17 | -17.27133 | -62.34876 | 4779 ft | 174 kts | 53° |
| 2026-04-18 18:18 | -17.26445 | -62.33827 | 4631 ft | 177 kts | 52° |
| 2026-04-18 18:18 | -17.25736 | -62.32758 | 4490 ft | 179 kts | 52° |
| 2026-04-18 18:18 | -17.25021 | -62.31674 | 4333 ft | 180 kts | 52° |
| 2026-04-18 18:18 | -17.24320 | -62.30613 | 4258 ft | 176 kts | 52° |
| 2026-04-18 18:19 | -17.23631 | -62.29574 | 4116 ft | 176 kts | 53° |
| 2026-04-18 18:19 | -17.22932 | -62.28514 | 3967 ft | 177 kts | 53° |
| 2026-04-18 18:19 | -17.22230 | -62.27452 | 3781 ft | 176 kts | 53° |
| 2026-04-18 18:19 | -17.21534 | -62.26404 | 3585 ft | 176 kts | 53° |
| 2026-04-18 18:20 | -17.20826 | -62.25334 | 3467 ft | 179 kts | 53° |
| 2026-04-18 18:20 | -17.20119 | -62.24276 | 3297 ft | 179 kts | 53° |
| 2026-04-18 18:20 | -17.19467 | -62.23270 | 3029 ft | 147 kts | 55° |
| 2026-04-18 18:20 | -17.18954 | -62.22469 | 2736 ft | 121 kts | 57° |
| 2026-04-18 18:21 | -17.18624 | -62.21680 | 2441 ft | 110 kts | 61° |
| 2026-04-18 18:21 | -17.18333 | -62.20981 | 2199 ft | 100 kts | 63° |
| 2026-04-18 18:21 | -17.18019 | -62.20260 | 2072 ft | 133 kts | 60° |
| 2026-04-18 18:21 | -17.17573 | -62.19353 | 1925 ft | 138 kts | 64° |
| 2026-04-18 18:22 | -17.17230 | -62.18512 | 1663 ft | 114 kts | 67° |
| 2026-04-18 18:22 | -17.16956 | -62.17793 | 1458 ft | 107 kts | 58° |
| 2026-04-18 18:22 | -17.16709 | -62.17111 | 1256 ft | 93 kts | 53° |
| 2026-04-18 18:22 | -17.16172 | -62.16841 | 1047 ft | 89 kts | 352° |
| 2026-04-18 18:23 | -17.15690 | -62.17120 | 851 ft | 66 kts | 321° |
| 2026-04-18 18:23 | -17.15477 | -62.17292 | 850 ft | 8 kts | 358° |
| 2026-04-18 18:23 | -17.15484 | -62.17284 | 850 ft | 3 kts | 110° |
| 2026-04-18 18:23 | -17.15483 | -62.17263 | 845 ft | 4 kts | 83° |
| 2026-04-18 18:24 | -17.15471 | -62.17188 | 849 ft | 13 kts | 60° |
| 2026-04-18 18:24 | -17.15466 | -62.17178 | 843 ft | 0 kts | 105° |
| 2026-04-18 18:31 | -17.15473 | -62.17180 | 850 ft | 6 kts | 267° |
| 2026-04-18 18:31 | -17.15486 | -62.17260 | 850 ft | 11 kts | 258° |
| 2026-04-18 18:32 | -17.15532 | -62.17245 | 850 ft | 8 kts | 145° |
| 2026-04-18 18:32 | -17.15580 | -62.17207 | 851 ft | 9 kts | 141° |
| 2026-04-18 18:32 | -17.15636 | -62.17159 | 846 ft | 13 kts | 140° |
| 2026-04-18 18:32 | -17.15762 | -62.17058 | 850 ft | 36 kts | 141° |
| 2026-04-18 18:33 | -17.15848 | -62.16985 | 846 ft | 7 kts | 199° |
| 2026-04-18 18:33 | -17.15828 | -62.17007 | 848 ft | 6 kts | 324° |
| 2026-04-18 18:33 | -17.15645 | -62.17153 | 851 ft | 62 kts | 321° |
| 2026-04-18 18:33 | -17.15254 | -62.17536 | 1023 ft | 84 kts | 311° |
| 2026-04-18 18:34 | -17.15212 | -62.18101 | 1292 ft | 99 kts | 226° |
| 2026-04-18 18:34 | -17.15560 | -62.18730 | 1495 ft | 109 kts | 256° |
| 2026-04-18 18:34 | -17.15797 | -62.19530 | 1689 ft | 118 kts | 256° |
| 2026-04-18 18:34 | -17.16054 | -62.20394 | 1858 ft | 133 kts | 256° |
| 2026-04-18 18:35 | -17.16591 | -62.21212 | 1995 ft | 148 kts | 216° |
| 2026-04-18 18:35 | -17.17486 | -62.21796 | 2152 ft | 150 kts | 216° |
| 2026-04-18 18:35 | -17.18301 | -62.22475 | 2396 ft | 149 kts | 224° |
| 2026-04-18 18:35 | -17.19040 | -62.23237 | 2656 ft | 149 kts | 230° |
| 2026-04-18 18:36 | -17.19717 | -62.24042 | 2890 ft | 148 kts | 232° |
| 2026-04-18 18:36 | -17.20368 | -62.24886 | 3183 ft | 151 kts | 238° |
| 2026-04-18 18:36 | -17.20941 | -62.25796 | 3432 ft | 149 kts | 242° |
| 2026-04-18 18:36 | -17.21482 | -62.26736 | 3743 ft | 151 kts | 240° |
| 2026-04-18 18:37 | -17.21869 | -62.27339 | 3901 ft | 151 kts | 238° |
| 2026-04-18 18:37 | -17.22471 | -62.28242 | 4143 ft | 150 kts | 239° |
| 2026-04-18 18:37 | -17.23040 | -62.29147 | 4385 ft | 149 kts | 239° |
| 2026-04-18 18:37 | -17.23805 | -62.30349 | 4665 ft | 151 kts | 238° |
| 2026-04-18 18:38 | -17.24205 | -62.30961 | 4751 ft | 155 kts | 240° |
| 2026-04-18 18:38 | -17.24814 | -62.31934 | 4835 ft | 163 kts | 240° |
| 2026-04-18 18:38 | -17.25666 | -62.33266 | 4861 ft | 169 kts | 239° |
| 2026-04-18 18:38 | -17.26328 | -62.34304 | 4857 ft | 172 kts | 239° |
| 2026-04-18 18:39 | -17.26769 | -62.35005 | 4846 ft | 173 kts | 240° |
| 2026-04-18 18:39 | -17.27437 | -62.36057 | 4855 ft | 174 kts | 239° |
| 2026-04-18 18:39 | -17.28111 | -62.37115 | 4864 ft | 175 kts | 239° |
| 2026-04-18 18:39 | -17.28779 | -62.38178 | 4863 ft | 173 kts | 239° |
| 2026-04-18 18:40 | -17.29442 | -62.39219 | 4865 ft | 175 kts | 239° |
| 2026-04-18 18:40 | -17.30120 | -62.40280 | 4875 ft | 176 kts | 239° |
| 2026-04-18 18:40 | -17.30799 | -62.41348 | 4865 ft | 176 kts | 239° |
| 2026-04-18 18:40 | -17.31480 | -62.42425 | 4861 ft | 177 kts | 239° |
| 2026-04-18 18:41 | -17.32169 | -62.43509 | 4861 ft | 178 kts | 239° |
| 2026-04-18 18:41 | -17.32845 | -62.44575 | 4863 ft | 176 kts | 239° |
| 2026-04-18 18:41 | -17.33525 | -62.45653 | 4891 ft | 176 kts | 240° |
| 2026-04-18 18:41 | -17.34204 | -62.46723 | 4895 ft | 178 kts | 239° |
| 2026-04-18 18:42 | -17.34884 | -62.47792 | 4868 ft | 176 kts | 239° |
| 2026-04-18 18:42 | -17.35561 | -62.48862 | 4886 ft | 175 kts | 238° |
| 2026-04-18 18:42 | -17.36237 | -62.49924 | 4879 ft | 176 kts | 240° |
| 2026-04-18 18:42 | -17.36911 | -62.50986 | 4869 ft | 177 kts | 240° |
| 2026-04-18 18:43 | -17.38256 | -62.53120 | 4843 ft | 174 kts | 240° |
| 2026-04-18 18:43 | -17.38931 | -62.54176 | 4887 ft | 174 kts | 241° |
| 2026-04-18 18:43 | -17.39604 | -62.55237 | 4864 ft | 174 kts | 239° |
| 2026-04-18 18:44 | -17.40257 | -62.56271 | 4867 ft | 172 kts | 239° |
| 2026-04-18 18:44 | -17.40922 | -62.57322 | 4899 ft | 174 kts | 240° |
| 2026-04-18 18:44 | -17.41597 | -62.58387 | 4874 ft | 174 kts | 239° |
| 2026-04-18 18:44 | -17.42265 | -62.59443 | 4885 ft | 175 kts | 239° |
| 2026-04-18 18:45 | -17.42941 | -62.60510 | 4914 ft | 176 kts | 240° |
| 2026-04-18 18:45 | -17.43617 | -62.61583 | 4883 ft | 175 kts | 239° |
| 2026-04-18 18:45 | -17.44289 | -62.62629 | 4879 ft | 175 kts | 240° |
| 2026-04-18 18:45 | -17.44956 | -62.63694 | 4865 ft | 175 kts | 240° |
| 2026-04-18 18:46 | -17.45623 | -62.64756 | 4858 ft | 174 kts | 241° |
| 2026-04-18 18:46 | -17.46297 | -62.65819 | 4855 ft | 175 kts | 239° |
| 2026-04-18 18:46 | -17.46978 | -62.66884 | 4858 ft | 175 kts | 240° |
| 2026-04-18 18:46 | -17.47645 | -62.67937 | 4885 ft | 175 kts | 239° |
| 2026-04-18 18:47 | -17.48304 | -62.69000 | 4894 ft | 175 kts | 240° |
| 2026-04-18 18:47 | -17.48988 | -62.70079 | 4878 ft | 176 kts | 241° |
| 2026-04-18 18:47 | -17.49654 | -62.71138 | 4896 ft | 175 kts | 240° |
| 2026-04-18 18:47 | -17.50325 | -62.72198 | 4896 ft | 175 kts | 240° |
| 2026-04-18 18:48 | -17.50997 | -62.73275 | 4928 ft | 177 kts | 240° |
| 2026-04-18 18:48 | -17.51676 | -62.74353 | 4892 ft | 176 kts | 241° |
| 2026-04-18 18:48 | -17.52345 | -62.75413 | 4868 ft | 173 kts | 240° |
| 2026-04-18 18:48 | -17.53012 | -62.76463 | 4900 ft | 175 kts | 240° |
| 2026-04-18 18:49 | -17.53684 | -62.77523 | 4875 ft | 173 kts | 240° |
| 2026-04-18 18:49 | -17.54362 | -62.78582 | 4883 ft | 175 kts | 239° |
| 2026-04-18 18:49 | -17.55044 | -62.79639 | 4861 ft | 174 kts | 240° |
| 2026-04-18 18:49 | -17.55721 | -62.80687 | 4869 ft | 173 kts | 239° |
| 2026-04-18 18:50 | -17.56400 | -62.81734 | 4905 ft | 175 kts | 240° |
| 2026-04-18 18:50 | -17.57086 | -62.82794 | 4917 ft | 176 kts | 239° |
| 2026-04-18 18:50 | -17.57779 | -62.83862 | 4898 ft | 178 kts | 239° |
| 2026-04-18 18:50 | -17.58479 | -62.84932 | 4898 ft | 177 kts | 239° |
| 2026-04-18 18:51 | -17.59171 | -62.85974 | 4868 ft | 175 kts | 238° |
| 2026-04-18 18:51 | -17.59866 | -62.87026 | 4878 ft | 175 kts | 240° |
| 2026-04-18 18:51 | -17.60562 | -62.88079 | 4865 ft | 175 kts | 238° |
| 2026-04-18 18:51 | -17.61256 | -62.89126 | 4869 ft | 175 kts | 238° |
| 2026-04-18 18:52 | -17.61946 | -62.90175 | 4869 ft | 174 kts | 239° |
| 2026-04-18 18:52 | -17.62634 | -62.91221 | 4862 ft | 173 kts | 239° |
| 2026-04-18 18:52 | -17.63332 | -62.92272 | 4710 ft | 179 kts | 240° |
| 2026-04-18 18:52 | -17.64050 | -62.93352 | 4556 ft | 182 kts | 240° |
| 2026-04-18 18:53 | -17.64776 | -62.94441 | 4419 ft | 185 kts | 238° |
| 2026-04-18 18:53 | -17.65523 | -62.95545 | 4246 ft | 185 kts | 239° |
| 2026-04-18 18:53 | -17.66269 | -62.96656 | 4094 ft | 186 kts | 238° |
| 2026-04-18 18:53 | -17.67010 | -62.97767 | 3924 ft | 186 kts | 239° |
| 2026-04-18 18:54 | -17.67752 | -62.98879 | 3763 ft | 186 kts | 239° |
| 2026-04-18 18:54 | -17.68503 | -62.99995 | 3594 ft | 186 kts | 238° |
| 2026-04-18 18:54 | -17.69233 | -63.01075 | 3477 ft | 182 kts | 239° |
| 2026-04-18 18:54 | -17.69963 | -63.02150 | 3426 ft | 179 kts | 239° |
| 2026-04-18 18:55 | -17.70687 | -63.03201 | 3411 ft | 177 kts | 239° |
| 2026-04-18 18:55 | -17.71401 | -63.04248 | 3383 ft | 174 kts | 239° |
| 2026-04-18 18:55 | -17.72128 | -63.05269 | 3398 ft | 175 kts | 237° |
| 2026-04-18 18:55 | -17.72854 | -63.06300 | 3398 ft | 175 kts | 238° |
| 2026-04-18 18:56 | -17.73578 | -63.07331 | 3382 ft | 174 kts | 239° |
| 2026-04-18 18:56 | -17.74436 | -63.08194 | 3384 ft | 179 kts | 208° |
| 2026-04-18 18:56 | -17.75683 | -63.08454 | 3393 ft | 186 kts | 185° |
| 2026-04-18 18:56 | -17.76989 | -63.08515 | 3377 ft | 188 kts | 182° |
| 2026-04-18 18:57 | -17.78256 | -63.08540 | 3370 ft | 164 kts | 184° |
| 2026-04-18 18:57 | -17.79304 | -63.08605 | 3366 ft | 161 kts | 188° |
| 2026-04-18 18:57 | -17.80488 | -63.08768 | 3224 ft | 181 kts | 188° |
| 2026-04-18 18:57 | -17.81783 | -63.08908 | 2954 ft | 185 kts | 187° |
| 2026-04-18 18:58 | -17.83044 | -63.09034 | 2686 ft | 179 kts | 188° |
| 2026-04-18 18:58 | -17.84272 | -63.09174 | 2416 ft | 176 kts | 189° |
| 2026-04-18 18:58 | -17.85478 | -63.09318 | 2141 ft | 173 kts | 186° |
| 2026-04-18 18:58 | -17.86678 | -63.09434 | 1853 ft | 176 kts | 189° |
| 2026-04-18 18:59 | -17.87745 | -63.09943 | 1585 ft | 164 kts | 230° |
| 2026-04-18 18:59 | -17.88048 | -63.10448 | 1559 ft | 149 kts | 257° |
| 2026-04-18 19:00 | -17.88081 | -63.10567 | 1594 ft | 143 kts | 264° |
| 2026-04-18 19:00 | -17.88041 | -63.11199 | 1790 ft | 109 kts | 306° |
| 2026-04-18 19:00 | -17.87569 | -63.11771 | 1871 ft | 102 kts | 318° |
| 2026-04-18 19:00 | -17.87092 | -63.12303 | 1953 ft | 99 kts | 320° |
| 2026-04-18 19:01 | -17.86610 | -63.12806 | 2058 ft | 96 kts | 318° |
| 2026-04-18 19:01 | -17.86117 | -63.13332 | 2080 ft | 102 kts | 320° |
| 2026-04-18 19:01 | -17.85549 | -63.13801 | 1906 ft | 110 kts | 325° |
| 2026-04-18 19:01 | -17.85024 | -63.14304 | 1865 ft | 96 kts | 320° |
| 2026-04-18 19:02 | -17.84524 | -63.14710 | 1808 ft | 77 kts | 329° |
| 2026-04-18 19:02 | -17.84104 | -63.14997 | 1827 ft | 70 kts | 326° |
| 2026-04-18 19:02 | -17.83678 | -63.15277 | 1735 ft | 79 kts | 329° |
| 2026-04-18 19:02 | -17.83238 | -63.15614 | 1652 ft | 78 kts | 328° |
| 2026-04-18 19:03 | -17.82811 | -63.15918 | 1520 ft | 71 kts | 329° |
| 2026-04-18 19:03 | -17.82397 | -63.16221 | 1462 ft | 78 kts | 332° |
| 2026-04-18 19:03 | -17.82071 | -63.16451 | 1408 ft | 77 kts | 324° |
| 2026-04-18 19:04 | -17.81414 | -63.16934 | 1368 ft | 26 kts | 324° |
| 2026-04-18 19:04 | -17.81276 | -63.17041 | 1368 ft | 25 kts | 323° |
| 2026-04-18 19:04 | -17.81129 | -63.17150 | 1370 ft | 26 kts | 328° |
| 2026-04-18 19:04 | -17.80981 | -63.17259 | 1370 ft | 27 kts | 327° |
| 2026-04-18 19:05 | -17.80831 | -63.17376 | 1373 ft | 27 kts | 326° |
| 2026-04-18 19:05 | -17.80532 | -63.17605 | 1378 ft | 26 kts | 324° |
| 2026-04-18 19:05 | -17.80378 | -63.17697 | 1380 ft | 26 kts | 13° |
| 2026-04-18 19:06 | -17.80247 | -63.17655 | 1379 ft | 13 kts | 18° |
| 2026-04-18 19:06 | -17.80221 | -63.17609 | 1379 ft | 0 kts | 68° |